Notice: A non well formed numeric value encountered in /mnt/web301/a1/70/5400070/htdocs/weather28/wsFunctions.php on line 312 Warning: A non-numeric value encountered in /mnt/web301/a1/70/5400070/htdocs/weather28/wsFunctions.php on line 312 Warning: A non-numeric value encountered in /mnt/web301/a1/70/5400070/htdocs/weather28/wsFunctions.php on line 312 Warning: A non-numeric value encountered in /mnt/web301/a1/70/5400070/htdocs/weather28/scriptsWL/tagsWL.php on line 167 Warning: A non-numeric value encountered in /mnt/web301/a1/70/5400070/htdocs/weather28/scriptsWL/tagsWL.php on line 168 Warning: A non-numeric value encountered in /mnt/web301/a1/70/5400070/htdocs/weather28/wsFunctions.php on line 267 Warning: A non-numeric value encountered in /mnt/web301/a1/70/5400070/htdocs/weather28/wsFunctions.php on line 267 Warning: A non-numeric value encountered in /mnt/web301/a1/70/5400070/htdocs/weather28/wsFunctions.php on line 267 Warning: A non-numeric value encountered in /mnt/web301/a1/70/5400070/htdocs/weather28/wsFunctions.php on line 267 Warning: A non-numeric value encountered in /mnt/web301/a1/70/5400070/htdocs/weather28/scriptsWL/tagsWL.php on line 208 Warning: A non-numeric value encountered in /mnt/web301/a1/70/5400070/htdocs/weather28/scriptsWL/tagsWL.php on line 209 Warning: A non-numeric value encountered in /mnt/web301/a1/70/5400070/htdocs/weather28/scriptsWL/tagsWL.php on line 211 Warning: A non-numeric value encountered in /mnt/web301/a1/70/5400070/htdocs/weather28/scriptsWL/tagsWL.php on line 213 Warning: A non-numeric value encountered in /mnt/web301/a1/70/5400070/htdocs/weather28/scriptsWL/tagsWL.php on line 214 Warning: A non-numeric value encountered in /mnt/web301/a1/70/5400070/htdocs/weather28/scriptsWL/tagsWL.php on line 216 Warning: A non-numeric value encountered in /mnt/web301/a1/70/5400070/htdocs/weather28/scriptsWL/tagsWL.php on line 219 Warning: A non-numeric value encountered in /mnt/web301/a1/70/5400070/htdocs/weather28/scriptsWL/tagsWL.php on line 221 Warning: A non-numeric value encountered in /mnt/web301/a1/70/5400070/htdocs/weather28/scriptsWL/tagsWL.php on line 223 Warning: A non-numeric value encountered in /mnt/web301/a1/70/5400070/htdocs/weather28/scriptsWL/tagsWL.php on line 224

Thunder radar more information blitzortung!


Rain radar more information rain snow radar


   Es ist keine erhoehte Aufmerksamkeit aufgrund des Wetters notwendig.   -   Es gibt keine Warnungen :-).

METAR-Meldungen aus der Umgebung

Warning: A non-numeric value encountered in /mnt/web301/a1/70/5400070/htdocs/weather28/metar/metarDisplay.php on line 166 Warning: A non-numeric value encountered in /mnt/web301/a1/70/5400070/htdocs/weather28/metar/metarDisplay.php on line 166 Warning: A non-numeric value encountered in /mnt/web301/a1/70/5400070/htdocs/weather28/metar/metarDisplay.php on line 166 Warning: A non-numeric value encountered in /mnt/web301/a1/70/5400070/htdocs/weather28/metar/metarDisplay.php on line 166 Warning: A non-numeric value encountered in /mnt/web301/a1/70/5400070/htdocs/weather28/metar/metarDisplay.php on line 166 Warning: A non-numeric value encountered in /mnt/web301/a1/70/5400070/htdocs/weather28/metar/metarDisplay.php on line 166
   
EBBR - Brussels International Airport, Belgium
Entfernung von der Station bis: W 14 km
Aktualisierung: 02-03-2021 13:50
Klar  
Klar  
   Wind: SO 7.4 km/h
Wind: SO 7.4 km/h
Temperatur: 15°C
Taupunkt: 5°C
Luftfeuchte: 51%
Luftdruck: 1029 hPa
Sichtbarkeit: More than 10 km
Bewölkung: Klar
EBBR 021250Z 14004KT 070V180 CAVOK 15/05 Q1029 NOSIG
EBBE - Beauvechain (Bevekom), Belgium
Entfernung von der Station bis: SSO 17 km
Aktualisierung: 02-03-2021 13:55
Klar  
Klar  
   Wind: SSO 7.4 km/h
Wind: SSO 7.4 km/h
Temperatur: 15°C
Taupunkt: 3°C
Luftfeuchte: 45%
Luftdruck: 1029 hPa
Bewölkt: Klar
Sichtbarkeit: More than 10 km
Bewölkung: Klar
EBBE 021255Z 15004KT 9999 SKC 15/03 Q1029 BLU BLU
EBDT - Schaffen, Belgium
Entfernung von der Station bis: ONO 29 km
Aktualisierung: 02-03-2021 13:55
Klar  
Klar  
   Wind: SO 11.1 km/h
Wind: SO 11.1 km/h
Temperatur: 16°C
Taupunkt: 5°C
Luftfeuchte: 48%
Luftdruck: 1029 hPa
Bewölkt: Klar
Sichtbarkeit: More than 10 km
Bewölkung: Klar
EBDT 021255Z 14006KT 9999 SKC 16/05 Q1029 BLU BLU
EBAW - Antwerp/Deurne, Belgium
Entfernung von der Station bis: NNW 38 km
Aktualisierung: 02-03-2021 13:50
Klar  
Klar  
   Wind: SO 11.1 km/h
Wind: SO 11.1 km/h
Temperatur: 14°C
Taupunkt: 4°C
Luftfeuchte: 51%
Luftdruck: 1029 hPa
Sichtbarkeit: More than 10 km
Bewölkung: Klar
EBAW 021250Z 14006KT 110V170 CAVOK 14/04 Q1029 NOSIG
EBCI - Charleroi/Gosselies, Belgium
Entfernung von der Station bis: SSW 51 km
Aktualisierung: 02-03-2021 13:50
Klar  
Klar  
   Wind: SSO 11.1 km/h
Wind: SSO 11.1 km/h
Temperatur: 16°C
Taupunkt: 2°C
Luftfeuchte: 39%
Luftdruck: 1029 hPa
Sichtbarkeit: More than 10 km
Bewölkung: Klar
EBCI 021250Z 16006KT 120V200 CAVOK 16/02 Q1029 NOSIG
EBLG - Bierset/Liege, Belgium
Entfernung von der Station bis: OSO 60 km
Aktualisierung: 02-03-2021 13:50
Klar  
Klar  
   Wind: SSW 11.1 km/h
Wind: SSW 11.1 km/h
Temperatur: 16°C
Taupunkt: 1°C
Luftfeuchte: 36%
Luftdruck: 1029 hPa
Sichtbarkeit: More than 10 km
Bewölkung: Klar
EBLG 021250Z 20006KT 160V220 CAVOK 16/01 Q1029 NOSIG

Script entwickelt von  Saratoga-weather.org Angepasst für das Template von  Weerstation Leuven